Last 6 Hours

Alpine-Roundhouse Top 7880'

15 Minute Data | America/Los_Angeles
as of 2/18/20 7:22 AM PST
Date & Time Temp (°F) RH (%) Dew Pt (°F) Wet Bulb (°F) Wind Dir (°) Wind Spd (mph) Wind Gust (mph) WindChill (°F)
2/18/20 - 0715 30.4 33 4.5 22.5 SE | 135 8.5 16.3 22.9
2/18/20 - 0700 30.6 33 4.8 22.7 SE | 125 6.9 11.6 24.0
2/18/20 - 0645 30.4 33 4.6 22.5 ESE | 122 7.0 12.5 24.0
2/18/20 - 0630 30.5 33 4.8 22.6 SE | 129 6.6 13.5 24.4
2/18/20 - 0615 30.7 33 5.1 22.8 ESE | 123 6.9 12.1 24.1
2/18/20 - 0600 30.5 34 5.6 22.8 SE | 127 6.4 9.4 24.6
2/18/20 - 0545 30.9 34 5.6 23.0 SE | 129 7.1 12.3 24.5
2/18/20 - 0530 31.0 35 6.4 23.3 ESE | 102 4.9 9.3 26.4
2/18/20 - 0515 30.8 36 6.7 23.2 SE | 134 3.1 8.1 28.2
2/18/20 - 0500 30.1 37 6.8 22.8 SE | 129 2.8 7.3 27.5
2/18/20 - 0445 29.8 38 7.2 22.6 SSW | 200 1.0 3.1 30.0
2/18/20 - 0430 30.4 38 7.9 23.2 S | 185 1.4 8.2 30.1
2/18/20 - 0415 30.6 38 8.2 23.4 S | 174 1.2 4.0 30.1
2/18/20 - 0400 30.8 38 8.2 23.5 SW | 226 1.2 3.9 30.7
2/18/20 - 0345 31.5 37 8.5 24.0 SW | 218 0.8 4.9 31.5
2/18/20 - 0330 31.8 37 8.3 24.1 SE | 127 2.0 6.1 30.8
2/18/20 - 0315 32.0 36 8.1 24.2 W | 274 0.8 3.1 31.9
2/18/20 - 0300 31.8 37 8.7 24.2 WSW | 249 1.3 4.3 31.1
2/18/20 - 0245 30.9 39 9.1 23.8 WSW | 243 1.3 7.2 28.7
2/18/20 - 0230 28.1 46 9.8 22.2 W | 267 0.4 3.1 26.8
2/18/20 - 0215 26.0 52 11.0 21.2 W | 272 0.7 3.4 25.8
2/18/20 - 0200 26.1 52 11.0 21.2 WNW | 282 0.7 2.8 26.0
2/18/20 - 0145 26.0 53 11.3 21.2 WNW | 291 0.3 2.3 25.9
2/18/20 - 0130 26.1 54 11.6 21.3 WSW | 255 0.7 3.6 25.6
Max 32.0 54 11.6 24.2 - 8.5 16.3 31.9
Avg 29.9 39 7.7 22.8 - 3.1 7.2 27.3
Min 26.0 33 4.5 21.2 - 0.3 2.3 22.9